Time;durP1;ratioP1;P1;durP2;ratioP2;P2;SDS_P1;SDS_P2;PMS_P1;PMS_P2;Temp;Humidity;BMP_temperature;BMP_pressure;BME280_temperature;BME280_humidity;BME280_pressure;Samples;Min_cycle;Max_cycle;Signal;HPM_P1;HPM_P2
2024/01/14 00:00:55;;;;;;;13.48;2.45;;;2.80;99.90;;;;;;4872703;29;19930;-46
2024/01/14 00:03:20;;;;;;;15.57;2.75;;;2.70;99.90;;;;;;4877269;29;20045;-45
2024/01/14 00:05:46;;;;;;;13.40;2.88;;;2.80;99.90;;;;;;4878564;29;20084;-46
2024/01/14 00:08:12;;;;;;;18.13;3.00;;;2.90;99.90;;;;;;4878014;29;20049;-46
2024/01/14 00:10:37;;;;;;;13.43;3.00;;;3.10;99.90;;;;;;4877738;29;20045;-47
2024/01/14 00:13:03;;;;;;;16.52;2.92;;;3.00;99.90;;;;;;4878552;29;20132;-45
2024/01/14 00:15:28;;;;;;;10.77;3.25;;;3.10;99.90;;;;;;4861615;29;20494;-46
2024/01/14 00:17:54;;;;;;;13.10;2.75;;;3.00;99.90;;;;;;4877363;29;20408;-46
2024/01/14 00:20:20;;;;;;;13.07;2.72;;;3.00;99.90;;;;;;4878105;29;20048;-46
2024/01/14 00:22:47;;;;;;;15.13;3.08;;;3.10;99.90;;;;;;4877679;29;20085;-45
2024/01/14 00:25:12;;;;;;;9.95;2.78;;;3.00;99.90;;;;;;4877596;29;20045;-47
2024/01/14 00:27:38;;;;;;;14.23;3.05;;;2.90;99.90;;;;;;4877619;29;20040;-47
2024/01/14 00:30:05;;;;;;;11.70;3.00;;;2.80;99.90;;;;;;4881576;29;20045;-45
2024/01/14 00:32:30;;;;;;;14.65;2.80;;;2.80;99.90;;;;;;4877884;29;20088;-46
2024/01/14 00:34:56;;;;;;;14.38;2.80;;;2.80;99.90;;;;;;4877813;29;20421;-46
2024/01/14 00:37:23;;;;;;;14.25;2.65;;;2.70;99.90;;;;;;4877441;29;20070;-46
2024/01/14 00:39:49;;;;;;;16.65;2.63;;;2.90;99.90;;;;;;4877353;29;20504;-49
2024/01/14 00:42:15;;;;;;;13.98;2.90;;;2.70;99.90;;;;;;4877199;29;20070;-46
2024/01/14 00:44:43;;;;;;;14.98;3.00;;;2.70;99.90;;;;;;4877765;29;20073;-46
2024/01/14 00:47:09;;;;;;;12.30;2.63;;;2.90;99.90;;;;;;4877789;29;20064;-46
2024/01/14 00:49:34;;;;;;;12.52;2.53;;;2.80;99.90;;;;;;4862472;29;20037;-46
2024/01/14 00:52:00;;;;;;;10.57;2.80;;;2.70;99.90;;;;;;4877053;29;20462;-48
2024/01/14 00:54:26;;;;;;;14.82;2.30;;;2.90;99.90;;;;;;4877569;29;20041;-47
2024/01/14 00:56:51;;;;;;;18.20;2.50;;;2.80;99.90;;;;;;4877405;29;20041;-46
2024/01/14 00:59:17;;;;;;;12.60;3.08;;;3.00;99.90;;;;;;4877972;29;20087;-47
2024/01/14 01:01:43;;;;;;;10.82;1.90;;;2.90;99.90;;;;;;4877919;29;20074;-46
2024/01/14 01:04:08;;;;;;;13.90;2.47;;;3.10;99.90;;;;;;4873692;29;20127;-46
2024/01/14 01:06:34;;;;;;;14.50;2.42;;;3.20;99.90;;;;;;4874384;29;20037;-47
2024/01/14 01:09:00;;;;;;;9.55;2.40;;;3.10;99.90;;;;;;4871476;29;20043;-47
2024/01/14 01:11:26;;;;;;;17.30;2.20;;;3.10;99.90;;;;;;4873630;29;20421;-45
2024/01/14 01:13:51;;;;;;;12.10;2.05;;;3.20;99.90;;;;;;4876125;29;20109;-45
2024/01/14 01:16:17;;;;;;;11.43;1.80;;;3.10;99.90;;;;;;4873167;29;20123;-45
2024/01/14 01:18:43;;;;;;;9.57;2.00;;;3.10;99.90;;;;;;4880266;29;20041;-45
2024/01/14 01:21:09;;;;;;;16.48;2.13;;;3.30;99.90;;;;;;4874009;29;20143;-47
2024/01/14 01:23:34;;;;;;;11.75;2.05;;;3.30;99.90;;;;;;4876159;29;20136;-45
2024/01/14 01:26:00;;;;;;;19.02;2.97;;;3.30;99.90;;;;;;4873329;29;20069;-46
2024/01/14 01:28:26;;;;;;;7.97;2.10;;;3.30;99.90;;;;;;4874672;29;20099;-45
2024/01/14 01:30:51;;;;;;;12.90;1.60;;;3.40;99.90;;;;;;4876229;29;20049;-46
2024/01/14 01:33:17;;;;;;;8.95;2.00;;;3.30;99.90;;;;;;4880021;29;20433;-48
2024/01/14 01:35:43;;;;;;;13.30;2.53;;;3.20;99.90;;;;;;4878339;29;20045;-47
2024/01/14 01:38:09;;;;;;;13.63;2.25;;;;;;;;;;4877860;29;20041;-46
2024/01/14 01:40:34;;;;;;;9.25;1.70;;;3.30;99.90;;;;;;4872506;29;20045;-49
2024/01/14 01:43:00;;;;;;;13.95;2.15;;;3.40;99.90;;;;;;4871999;29;20041;-46
2024/01/14 01:45:25;;;;;;;8.15;2.08;;;3.40;99.90;;;;;;4874404;29;20053;-46
2024/01/14 01:47:52;;;;;;;12.10;2.20;;;3.30;99.90;;;;;;4876570;29;20036;-47
2024/01/14 01:50:17;;;;;;;10.95;2.10;;;3.30;99.90;;;;;;4876468;29;21211;-46
2024/01/14 01:52:44;;;;;;;11.48;1.70;;;3.30;99.90;;;;;;4874460;29;20148;-46
2024/01/14 01:55:11;;;;;;;11.50;2.20;;;3.50;99.90;;;;;;4872554;29;20124;-47
2024/01/14 01:57:38;;;;;;;11.38;2.00;;;3.30;99.90;;;;;;4871067;29;20045;-46
2024/01/14 02:00:04;;;;;;;11.75;2.30;;;3.40;99.90;;;;;;4872222;29;20052;-48
2024/01/14 02:02:30;;;;;;;9.13;1.88;;;3.30;99.90;;;;;;4875049;29;20100;-47
2024/01/14 02:04:55;;;;;;;11.23;2.17;;;3.40;99.90;;;;;;4873465;29;20050;-47
2024/01/14 02:07:21;;;;;;;10.35;1.90;;;3.50;99.90;;;;;;4879075;29;20056;-46
2024/01/14 02:09:47;;;;;;;11.38;1.70;;;3.40;99.90;;;;;;4882765;29;20047;-46
2024/01/14 02:12:13;;;;;;;9.68;1.80;;;3.40;99.90;;;;;;4860687;29;20136;-46
2024/01/14 02:14:38;;;;;;;12.15;1.90;;;3.30;99.90;;;;;;4877680;29;20127;-45
2024/01/14 02:17:04;;;;;;;12.25;2.15;;;3.30;99.90;;;;;;4874018;29;20033;-47
2024/01/14 02:19:29;;;;;;;15.35;1.77;;;3.40;99.90;;;;;;4877912;29;20041;-46
2024/01/14 02:22:08;;;;;;;10.95;1.70;;;3.30;99.90;;;;;;4880970;29;20037;-47
2024/01/14 02:24:35;;;;;;;10.43;1.60;;;3.40;99.90;;;;;;4874265;29;20048;-46
2024/01/14 02:27:01;;;;;;;13.32;1.45;;;3.50;99.90;;;;;;4872392;29;20404;-46
2024/01/14 02:29:30;;;;;;;12.18;1.70;;;3.50;99.90;;;;;;4877092;29;20045;-45
2024/01/14 02:31:57;;;;;;;11.07;1.75;;;3.50;99.90;;;;;;4880548;29;20053;-46
2024/01/14 02:34:22;;;;;;;15.13;2.00;;;3.50;99.90;;;;;;4881309;29;20041;-47
2024/01/14 02:36:48;;;;;;;15.30;2.00;;;3.40;99.90;;;;;;4880217;29;20041;-45
2024/01/14 02:39:16;;;;;;;9.60;1.30;;;3.40;99.90;;;;;;4879081;29;20041;-46
2024/01/14 02:41:42;;;;;;;9.30;1.48;;;3.30;99.90;;;;;;4877887;29;20509;-46
2024/01/14 02:44:08;;;;;;;12.25;1.63;;;3.30;99.90;;;;;;4876705;29;20065;-48
2024/01/14 02:46:35;;;;;;;18.23;2.08;;;3.20;99.90;;;;;;4878356;29;20135;-48
2024/01/14 02:49:00;;;;;;;13.85;1.80;;;3.40;99.90;;;;;;4877914;29;20041;-46
2024/01/14 02:51:26;;;;;;;11.43;1.73;;;3.30;99.90;;;;;;4877550;29;20384;-48
2024/01/14 02:53:52;;;;;;;11.48;1.83;;;3.40;99.90;;;;;;4878890;29;20437;-46
2024/01/14 02:56:18;;;;;;;16.00;2.58;;;3.30;99.90;;;;;;4876459;29;20108;-45
2024/01/14 02:58:44;;;;;;;10.32;1.85;;;3.40;99.90;;;;;;4878617;29;20364;-46
2024/01/14 03:01:11;;;;;;;13.93;2.63;;;3.40;99.90;;;;;;4881358;29;20125;-45
2024/01/14 03:03:37;;;;;;;17.87;1.83;;;3.40;99.90;;;;;;4880587;29;20059;-45
2024/01/14 03:06:03;;;;;;;12.25;2.20;;;3.30;99.90;;;;;;4873869;29;20052;-45
2024/01/14 03:08:29;;;;;;;9.77;1.73;;;3.30;99.90;;;;;;4880278;29;20037;-46
2024/01/14 03:10:55;;;;;;;17.52;2.28;;;3.30;99.90;;;;;;4878784;29;20052;-47
2024/01/14 03:13:21;;;;;;;18.73;2.33;;;3.30;99.90;;;;;;4879375;29;20037;-46
2024/01/14 03:15:46;;;;;;;9.98;1.95;;;3.20;99.90;;;;;;4877543;29;20124;-45
2024/01/14 03:18:12;;;;;;;10.45;1.50;;;3.20;99.90;;;;;;4879290;29;20777;-47
2024/01/14 03:20:38;;;;;;;17.77;3.13;;;3.20;99.90;;;;;;4863619;29;20045;-46
2024/01/14 03:23:04;;;;;;;11.43;1.50;;;3.20;99.90;;;;;;4880144;29;20037;-45
2024/01/14 03:25:30;;;;;;;14.20;2.10;;;3.10;99.90;;;;;;4876547;29;20049;-46
2024/01/14 03:27:55;;;;;;;16.88;2.33;;;3.10;99.90;;;;;;4881076;29;20496;-46
2024/01/14 03:30:21;;;;;;;13.73;2.25;;;3.10;99.90;;;;;;4879085;29;20037;-46
2024/01/14 03:32:47;;;;;;;10.73;1.73;;;3.10;99.90;;;;;;4876924;29;20133;-46
2024/01/14 03:35:12;;;;;;;11.18;2.03;;;3.10;99.90;;;;;;4879973;29;20377;-45
2024/01/14 03:37:38;;;;;;;11.38;1.52;;;3.10;99.90;;;;;;4877292;29;20073;-47
2024/01/14 03:40:05;;;;;;;7.55;1.50;;;3.10;99.90;;;;;;4876142;29;20132;-46
2024/01/14 03:42:30;;;;;;;10.35;1.40;;;3.00;99.90;;;;;;4877991;29;20056;-47
2024/01/14 03:44:56;;;;;;;13.15;1.90;;;3.00;99.90;;;;;;4881993;29;20036;-48
2024/01/14 03:47:22;;;;;;;12.65;1.92;;;3.10;99.90;;;;;;4881472;29;20093;-45
2024/01/14 03:49:47;;;;;;;10.68;1.75;;;3.10;99.90;;;;;;4877395;29;20053;-47
2024/01/14 03:52:13;;;;;;;13.45;1.98;;;3.00;99.90;;;;;;4876001;29;20057;-50
2024/01/14 03:54:38;;;;;;;10.82;1.58;;;2.90;99.90;;;;;;4880920;29;20425;-47
2024/01/14 03:57:04;;;;;;;14.10;1.90;;;3.00;99.90;;;;;;4857022;29;20040;-47
2024/01/14 03:59:30;;;;;;;10.52;1.80;;;3.10;99.90;;;;;;4876927;29;20051;-47
2024/01/14 04:01:56;;;;;;;14.68;1.73;;;3.10;99.90;;;;;;4860357;29;20044;-46
2024/01/14 04:04:21;;;;;;;14.73;1.92;;;3.00;99.90;;;;;;4875110;29;20052;-46
2024/01/14 04:06:47;;;;;;;13.25;1.45;;;3.00;99.90;;;;;;4879091;29;20345;-46
2024/01/14 04:09:13;;;;;;;15.80;2.22;;;3.00;99.90;;;;;;4876616;29;20374;-47
2024/01/14 04:11:38;;;;;;;14.10;1.70;;;2.90;99.90;;;;;;4875078;29;20084;-46
2024/01/14 04:14:04;;;;;;;11.65;1.27;;;3.00;99.90;;;;;;4875157;29;20370;-46
2024/01/14 04:16:40;;;;;;;11.30;1.40;;;3.10;99.90;;;;;;4859580;29;20041;-47
2024/01/14 04:19:06;;;;;;;11.60;1.63;;;3.10;99.90;;;;;;4871528;29;20037;-46
2024/01/14 04:21:32;;;;;;;12.55;1.52;;;3.20;99.90;;;;;;4876941;29;20041;-46
2024/01/14 04:24:04;;;;;;;7.40;1.38;;;3.10;99.90;;;;;;4876199;29;20388;-45
2024/01/14 04:26:30;;;;;;;13.48;1.30;;;3.20;99.90;;;;;;4878495;29;20041;-46
2024/01/14 04:28:56;;;;;;;12.45;1.38;;;3.20;99.90;;;;;;4874435;29;20044;-46
2024/01/14 04:31:22;;;;;;;9.30;1.58;;;3.20;99.90;;;;;;4875881;29;20053;-46
2024/01/14 04:33:48;;;;;;;10.63;1.55;;;3.30;99.90;;;;;;4872786;29;20071;-45
2024/01/14 04:36:17;;;;;;;7.22;1.10;;;3.20;99.90;;;;;;4876215;29;20041;-46
2024/01/14 04:38:43;;;;;;;9.43;1.63;;;3.30;99.90;;;;;;4874072;29;20044;-46
2024/01/14 04:41:09;;;;;;;5.32;1.10;;;3.20;99.90;;;;;;4879694;29;20045;-45
2024/01/14 04:43:36;;;;;;;6.22;1.48;;;3.10;99.90;;;;;;4874210;29;20048;-46
2024/01/14 04:46:02;;;;;;;8.10;1.52;;;3.10;99.90;;;;;;4876727;29;20101;-45
2024/01/14 04:48:28;;;;;;;10.65;1.23;;;3.10;99.90;;;;;;4874379;29;20402;-45
2024/01/14 04:50:54;;;;;;;6.32;1.00;;;3.00;99.90;;;;;;4882931;29;20049;-48
2024/01/14 04:53:19;;;;;;;5.57;1.30;;;3.00;99.90;;;;;;4875072;29;20140;-45
2024/01/14 04:55:45;;;;;;;8.68;1.50;;;3.00;99.90;;;;;;4877259;29;20511;-47
2024/01/14 04:58:11;;;;;;;8.50;1.25;;;3.00;99.90;;;;;;4858728;29;20084;-47
2024/01/14 05:00:37;;;;;;;7.68;1.25;;;2.90;99.90;;;;;;4872316;29;20087;-46
2024/01/14 05:03:03;;;;;;;14.70;1.58;;;3.00;99.90;;;;;;4875020;29;20066;-47
2024/01/14 05:05:29;;;;;;;8.43;1.40;;;3.00;99.90;;;;;;4869791;29;20045;-45
2024/01/14 05:07:54;;;;;;;10.32;1.30;;;3.00;99.90;;;;;;4879824;29;20453;-46
2024/01/14 05:10:20;;;;;;;11.30;1.60;;;3.00;99.90;;;;;;4876494;29;20056;-47
2024/01/14 05:12:45;;;;;;;13.27;1.20;;;2.90;99.90;;;;;;4882779;29;20083;-46
2024/01/14 05:15:11;;;;;;;8.70;1.50;;;3.00;99.90;;;;;;4874684;29;20055;-46
2024/01/14 05:17:36;;;;;;;11.00;1.33;;;3.00;99.90;;;;;;4879121;29;20053;-48
2024/01/14 05:20:02;;;;;;;7.30;1.10;;;3.10;99.90;;;;;;4874437;29;20033;-47
2024/01/14 05:22:28;;;;;;;11.77;1.45;;;3.10;99.90;;;;;;4876579;29;20492;-46
2024/01/14 05:24:54;;;;;;;11.48;1.40;;;3.10;99.90;;;;;;4876090;29;20073;-47
2024/01/14 05:27:20;;;;;;;10.45;1.85;;;3.10;99.90;;;;;;4874664;29;20041;-45
2024/01/14 05:29:45;;;;;;;13.63;1.50;;;3.20;99.90;;;;;;4876923;29;20093;-46
2024/01/14 05:32:13;;;;;;;9.73;1.13;;;3.20;99.90;;;;;;4876030;29;20057;-46
2024/01/14 05:34:39;;;;;;;6.13;1.50;;;;;;;;;;4879304;29;20115;-48
2024/01/14 05:37:05;;;;;;;15.48;2.13;;;3.20;99.90;;;;;;4872141;29;20049;-45
2024/01/14 05:39:32;;;;;;;13.57;1.90;;;3.20;99.90;;;;;;4874674;29;20048;-47
2024/01/14 05:41:58;;;;;;;14.18;1.50;;;3.30;99.90;;;;;;4858049;29;20041;-45
2024/01/14 05:44:24;;;;;;;14.68;1.60;;;3.40;99.90;;;;;;4873576;29;20385;-46
2024/01/14 05:46:50;;;;;;;12.30;1.83;;;3.30;99.90;;;;;;4876179;29;20075;-46
2024/01/14 05:49:15;;;;;;;11.77;1.70;;;3.30;99.90;;;;;;4874607;29;20049;-46
2024/01/14 05:51:41;;;;;;;12.82;1.80;;;3.40;99.90;;;;;;4874051;29;20477;-46
2024/01/14 05:54:07;;;;;;;8.15;1.20;;;3.40;99.90;;;;;;4879250;29;20048;-49
2024/01/14 05:56:32;;;;;;;11.13;2.17;;;3.30;99.90;;;;;;4878743;29;20045;-46
2024/01/14 05:59:00;;;;;;;14.73;1.92;;;3.30;99.90;;;;;;4870951;29;20060;-46
2024/01/14 06:01:29;;;;;;;11.88;2.10;;;3.20;99.90;;;;;;4876398;29;20056;-45
2024/01/14 06:03:55;;;;;;;15.05;2.83;;;3.10;99.90;;;;;;4874574;29;20496;-46
2024/01/14 06:06:21;;;;;;;11.75;2.28;;;3.20;99.90;;;;;;4867462;29;20037;-46
2024/01/14 06:08:46;;;;;;;11.43;1.83;;;3.30;99.90;;;;;;4874498;29;20033;-47
2024/01/14 06:11:13;;;;;;;10.35;1.70;;;3.20;99.90;;;;;;4861067;29;20135;-46
2024/01/14 06:13:39;;;;;;;14.18;2.00;;;3.20;99.90;;;;;;4876963;29;20044;-47
2024/01/14 06:16:05;;;;;;;13.38;1.88;;;3.20;99.90;;;;;;4872785;29;20064;-47
2024/01/14 06:18:31;;;;;;;13.00;2.45;;;3.30;99.90;;;;;;4871677;29;20440;-46
2024/01/14 06:20:59;;;;;;;13.55;2.00;;;3.30;99.90;;;;;;4879002;29;20041;-48
2024/01/14 06:23:25;;;;;;;;;;;3.20;99.90;;;;;;4876360;29;21748;-47
2024/01/14 06:25:51;;;;;;;9.27;1.70;;;3.20;99.90;;;;;;4874235;29;20385;-45
2024/01/14 06:28:16;;;;;;;7.85;1.58;;;3.30;99.90;;;;;;4874829;29;20041;-47
2024/01/14 06:30:42;;;;;;;8.23;1.70;;;3.30;99.90;;;;;;4872945;29;20484;-46
2024/01/14 06:33:09;;;;;;;10.85;1.70;;;3.30;99.90;;;;;;4876641;29;20044;-47
2024/01/14 06:35:35;;;;;;;8.10;1.23;;;3.30;99.90;;;;;;4873241;29;20048;-45
2024/01/14 06:38:01;;;;;;;8.50;1.70;;;3.20;99.90;;;;;;4873866;29;20045;-46
2024/01/14 06:40:26;;;;;;;9.77;1.73;;;3.20;99.90;;;;;;4873404;29;20408;-46
2024/01/14 06:42:52;;;;;;;8.57;1.73;;;3.20;99.90;;;;;;4870008;29;20044;-45
2024/01/14 06:45:18;;;;;;;10.52;1.50;;;3.30;99.90;;;;;;4873869;29;20128;-46
2024/01/14 06:47:43;;;;;;;8.80;1.33;;;3.20;99.90;;;;;;4875269;29;20500;-45
2024/01/14 06:50:10;;;;;;;7.63;1.70;;;3.10;99.90;;;;;;4875733;29;20087;-46
2024/01/14 06:52:37;;;;;;;11.80;1.67;;;3.30;99.90;;;;;;4871728;29;20065;-46
2024/01/14 06:55:06;;;;;;;11.63;1.95;;;3.10;99.90;;;;;;4874832;29;20041;-45
2024/01/14 06:57:32;;;;;;;13.98;1.77;;;3.30;99.90;;;;;;4873334;29;20045;-47
2024/01/14 07:00:05;;;;;;;6.13;1.40;;;3.30;99.90;;;;;;4861441;29;20045;-47
2024/01/14 07:02:31;;;;;;;9.38;1.40;;;3.20;99.90;;;;;;4874578;29;20508;-47
2024/01/14 07:04:57;;;;;;;9.05;1.58;;;3.10;99.90;;;;;;4873565;29;20165;-47
2024/01/14 07:07:22;;;;;;;8.73;1.63;;;3.20;99.90;;;;;;4875931;29;20480;-48
2024/01/14 07:09:48;;;;;;;12.55;1.70;;;3.10;99.90;;;;;;4871961;29;20049;-46
2024/01/14 07:12:14;;;;;;;10.65;1.40;;;3.20;99.90;;;;;;4873567;29;20109;-46
2024/01/14 07:14:40;;;;;;;7.22;1.35;;;3.20;99.90;;;;;;4857996;29;20037;-46
2024/01/14 07:17:06;;;;;;;7.13;1.45;;;3.10;99.90;;;;;;4874746;29;20041;-48
2024/01/14 07:19:32;;;;;;;7.78;1.63;;;3.20;99.90;;;;;;4873603;29;20123;-46
2024/01/14 07:21:57;;;;;;;3.95;1.27;;;3.20;99.90;;;;;;4873318;29;20461;-46
2024/01/14 07:24:23;;;;;;;11.20;1.63;;;3.10;99.90;;;;;;4880378;29;20037;-46
2024/01/14 07:26:48;;;;;;;8.60;1.60;;;3.20;99.90;;;;;;4877934;29;20278;-45
2024/01/14 07:29:14;;;;;;;9.75;1.85;;;3.30;99.90;;;;;;4882651;29;20055;-47
2024/01/14 07:31:40;;;;;;;6.47;1.38;;;3.30;99.90;;;;;;4876642;29;20432;-46
2024/01/14 07:34:06;;;;;;;8.88;1.45;;;3.20;99.90;;;;;;4881460;29;20177;-46
2024/01/14 07:36:32;;;;;;;11.65;2.03;;;3.20;99.90;;;;;;4883993;29;20040;-45
2024/01/14 07:38:59;;;;;;;7.05;1.80;;;3.20;99.90;;;;;;4887191;29;20059;-46
2024/01/14 07:41:25;;;;;;;6.10;1.80;;;3.30;99.90;;;;;;4876953;29;20642;-46
2024/01/14 07:43:51;;;;;;;5.50;1.58;;;3.30;99.90;;;;;;4888971;29;20304;-45
2024/01/14 07:46:17;;;;;;;7.03;2.13;;;3.30;99.90;;;;;;4879100;29;20054;-47
2024/01/14 07:48:43;;;;;;;12.85;2.60;;;3.40;99.90;;;;;;4887835;29;20119;-45
2024/01/14 07:51:09;;;;;;;8.10;2.92;;;3.30;99.90;;;;;;4881562;29;20061;-47
2024/01/14 07:53:35;;;;;;;10.57;3.15;;;3.30;99.90;;;;;;4887905;29;20149;-46
2024/01/14 07:56:01;;;;;;;14.23;3.47;;;3.30;99.90;;;;;;4878613;29;20124;-46
2024/01/14 07:58:27;;;;;;;10.52;3.70;;;3.40;99.90;;;;;;4883719;29;20396;-46
2024/01/14 08:00:53;;;;;;;12.38;3.53;;;3.50;99.90;;;;;;4886497;29;20049;-46
2024/01/14 08:03:19;;;;;;;13.68;4.20;;;;;;;;;;4882822;29;20048;-47
2024/01/14 08:05:45;;;;;;;13.27;3.92;;;3.50;99.90;;;;;;4879266;29;20052;-48
2024/01/14 08:08:10;;;;;;;12.20;4.45;;;3.40;99.90;;;;;;4890295;29;20048;-48
2024/01/14 08:10:36;;;;;;;11.38;4.43;;;3.40;99.90;;;;;;4879980;29;20060;-45
2024/01/14 08:13:02;;;;;;;15.30;4.95;;;3.50;99.90;;;;;;4888979;29;20048;-48
2024/01/14 08:15:28;;;;;;;13.85;5.38;;;3.50;99.90;;;;;;4885487;29;20084;-47
2024/01/14 08:17:54;;;;;;;17.63;6.03;;;3.50;99.90;;;;;;4884711;29;20085;-46
2024/01/14 08:20:20;;;;;;;17.08;6.78;;;;;;;;;;4890974;29;20499;-46
2024/01/14 08:22:45;;;;;;;18.73;7.43;;;3.60;99.90;;;;;;4880343;29;20044;-47
2024/01/14 08:25:11;;;;;;;18.35;7.88;;;3.60;99.90;;;;;;4876936;29;20101;-46
2024/01/14 08:27:41;;;;;;;15.85;7.68;;;3.60;99.90;;;;;;4889401;29;20041;-45
2024/01/14 08:30:07;;;;;;;17.92;8.60;;;3.60;99.90;;;;;;4888906;29;20049;-46
2024/01/14 08:32:33;;;;;;;19.42;8.85;;;3.60;99.90;;;;;;4880484;29;20377;-48
2024/01/14 08:34:59;;;;;;;16.95;8.65;;;3.80;99.90;;;;;;4886847;29;20123;-46
2024/01/14 08:37:29;;;;;;;21.08;9.30;;;3.70;99.90;;;;;;4891421;29;20112;-46
2024/01/14 08:39:54;;;;;;;22.35;9.48;;;3.80;99.90;;;;;;4886344;29;20040;-46
2024/01/14 08:42:20;;;;;;;21.95;9.55;;;3.70;99.90;;;;;;4894141;29;20132;-46
2024/01/14 08:44:47;;;;;;;23.50;10.57;;;3.70;99.90;;;;;;4888391;29;20048;-46
2024/01/14 08:47:13;;;;;;;24.85;10.18;;;3.70;99.90;;;;;;4884462;29;20475;-47
2024/01/14 08:49:40;;;;;;;19.85;9.43;;;3.80;99.90;;;;;;4883788;29;20080;-47
2024/01/14 08:52:07;;;;;;;28.10;10.38;;;3.80;99.90;;;;;;4885032;29;20087;-46
2024/01/14 08:54:34;;;;;;;23.58;10.82;;;3.90;99.90;;;;;;4886148;29;20041;-47
2024/01/14 08:56:59;;;;;;;20.70;10.32;;;3.80;99.90;;;;;;4880373;29;20103;-47
2024/01/14 08:59:25;;;;;;;22.02;10.93;;;3.90;99.90;;;;;;4888704;29;20071;-46
2024/01/14 09:01:51;;;;;;;21.08;10.75;;;3.80;99.90;;;;;;4891195;29;20044;-47
2024/01/14 09:04:17;;;;;;;21.23;10.38;;;3.80;99.90;;;;;;4889519;29;20045;-46
2024/01/14 09:06:42;;;;;;;21.40;10.55;;;3.90;99.90;;;;;;4877194;29;20462;-47
2024/01/14 09:09:08;;;;;;;21.10;10.20;;;3.80;99.90;;;;;;4883230;29;20036;-46
2024/01/14 09:11:34;;;;;;;24.55;11.05;;;3.90;99.90;;;;;;4880025;29;20051;-46
2024/01/14 09:13:59;;;;;;;22.95;10.23;;;3.90;99.90;;;;;;4881423;29;20461;-47
2024/01/14 09:16:25;;;;;;;20.77;10.25;;;3.90;99.90;;;;;;4879720;29;20041;-47
2024/01/14 09:18:51;;;;;;;19.83;9.93;;;3.90;99.90;;;;;;4878404;29;20045;-46
2024/01/14 09:21:17;;;;;;;19.10;9.90;;;4.00;99.90;;;;;;4889740;29;20079;-46
2024/01/14 09:23:42;;;;;;;22.58;9.70;;;4.00;99.90;;;;;;4879737;29;20671;-46
2024/01/14 09:26:08;;;;;;;21.08;11.02;;;4.00;99.90;;;;;;4884880;29;20040;-46
2024/01/14 09:28:35;;;;;;;24.10;10.80;;;3.90;99.90;;;;;;4882473;29;20105;-46
2024/01/14 09:31:02;;;;;;;22.92;11.07;;;3.90;99.90;;;;;;4879680;29;20079;-47
2024/01/14 09:33:27;;;;;;;24.83;11.65;;;3.90;99.90;;;;;;4876523;29;20527;-47
2024/01/14 09:35:54;;;;;;;19.05;9.57;;;3.90;99.90;;;;;;4886781;29;20068;-46
2024/01/14 09:38:20;;;;;;;25.05;11.57;;;3.90;99.90;;;;;;4882351;29;20114;-46
2024/01/14 09:40:57;;;;;;;25.75;11.70;;;3.90;99.90;;;;;;4874491;29;21298;-46
2024/01/14 09:43:24;;;;;;;22.30;12.55;;;3.90;99.90;;;;;;4877890;29;20049;-46
2024/01/14 09:45:50;;;;;;;26.60;13.65;;;3.90;99.90;;;;;;4878982;29;20041;-46
2024/01/14 09:48:18;;;;;;;25.58;13.35;;;3.90;99.90;;;;;;4891876;29;20052;-45
2024/01/14 09:50:44;;;;;;;24.55;13.70;;;3.90;99.90;;;;;;4877699;29;20061;-46
2024/01/14 09:53:14;;;;;;;26.13;13.38;;;3.80;99.90;;;;;;4892396;29;20067;-45
2024/01/14 09:55:40;;;;;;;31.80;15.63;;;3.80;99.90;;;;;;4861060;29;20049;-46
2024/01/14 09:58:07;;;;;;;31.25;14.70;;;3.80;99.90;;;;;;4887607;29;20092;-46
2024/01/14 10:00:36;;;;;;;33.97;15.00;;;3.80;99.90;;;;;;4863330;29;20453;-45
2024/01/14 10:03:02;;;;;;;31.02;16.25;;;3.80;99.90;;;;;;4877505;29;20080;-46
2024/01/14 10:05:28;;;;;;;32.28;18.05;;;3.80;99.90;;;;;;4877693;29;20064;-49
2024/01/14 10:07:54;;;;;;;33.15;17.35;;;3.80;99.90;;;;;;4881194;29;20037;-49
2024/01/14 10:10:19;;;;;;;34.47;18.20;;;3.80;99.90;;;;;;4876839;29;20048;-46
2024/01/14 10:12:46;;;;;;;35.22;19.35;;;3.80;99.90;;;;;;4876270;29;20052;-46
2024/01/14 10:15:11;;;;;;;36.97;19.23;;;3.90;99.90;;;;;;4875736;29;20059;-49
2024/01/14 10:17:37;;;;;;;44.63;20.67;;;3.90;99.90;;;;;;4876123;29;21610;-50
2024/01/14 10:20:03;;;;;;;46.35;21.42;;;3.90;99.90;;;;;;4874150;29;20052;-50
2024/01/14 10:22:29;;;;;;;37.15;19.65;;;3.90;99.90;;;;;;4875501;29;20392;-46
2024/01/14 10:24:55;;;;;;;40.70;19.77;;;4.00;99.90;;;;;;4876388;29;20045;-45
2024/01/14 10:27:22;;;;;;;42.13;21.73;;;4.10;99.90;;;;;;4876317;29;20055;-46
2024/01/14 10:29:49;;;;;;;47.50;21.70;;;4.00;99.90;;;;;;4860177;29;20765;-46
2024/01/14 10:32:15;;;;;;;43.28;20.55;;;3.90;99.90;;;;;;4875884;29;22026;-46
2024/01/14 10:34:41;;;;;;;37.40;21.38;;;4.00;99.90;;;;;;4874950;29;20041;-46
2024/01/14 10:37:08;;;;;;;43.47;20.83;;;3.90;99.90;;;;;;4876516;29;20048;-46
2024/01/14 10:39:34;;;;;;;40.53;20.27;;;4.00;99.90;;;;;;4876759;29;20118;-45
2024/01/14 10:42:01;;;;;;;38.20;19.90;;;3.90;99.90;;;;;;4876820;29;20052;-45
2024/01/14 10:44:27;;;;;;;36.72;21.35;;;4.00;99.90;;;;;;4876594;29;20492;-46
2024/01/14 10:46:53;;;;;;;36.85;20.02;;;4.10;99.90;;;;;;4860202;29;20053;-46
2024/01/14 10:49:26;;;;;;;35.85;20.02;;;;;;;;;;4891888;29;20045;-45
2024/01/14 10:52:08;;;;;;;36.13;19.63;;;4.00;99.90;;;;;;4889069;29;20448;-46
2024/01/14 10:54:44;;;;;;;40.67;19.98;;;4.10;99.90;;;;;;4879727;29;20037;-46
2024/01/14 10:57:35;;;;;;;39.45;20.85;;;4.20;99.90;;;;;;4879517;29;20055;-46
2024/01/14 11:00:08;;;;;;;39.17;20.08;;;4.40;99.90;;;;;;4879039;29;20045;-46
2024/01/14 11:02:39;;;;;;;37.15;20.90;;;4.40;99.90;;;;;;4865259;29;20116;-46
2024/01/14 11:05:06;;;;;;;38.45;21.00;;;4.60;99.90;;;;;;4889483;29;20480;-46
2024/01/14 11:07:36;;;;;;;34.97;19.73;;;4.60;99.90;;;;;;4880840;29;20052;-45
2024/01/14 11:10:10;;;;;;;32.90;20.50;;;4.50;99.90;;;;;;4881418;29;20049;-46
2024/01/14 11:12:39;;;;;;;33.03;20.25;;;4.50;99.90;;;;;;4894838;29;20669;-48
2024/01/14 11:15:26;;;;;;;31.70;19.40;;;4.50;99.90;;;;;;4894511;29;20044;-50
2024/01/14 11:18:04;;;;;;;31.13;18.55;;;4.50;99.90;;;;;;4884772;29;20546;-46
2024/01/14 11:20:34;;;;;;;32.45;19.20;;;4.60;99.90;;;;;;4872224;29;20517;-46
2024/01/14 11:22:59;;;;;;;30.45;17.80;;;4.60;99.90;;;;;;4886108;29;20049;-48
2024/01/14 11:25:32;;;;;;;25.70;16.55;;;4.50;99.90;;;;;;4881410;29;20124;-46
2024/01/14 11:27:57;;;;;;;29.02;16.50;;;4.50;99.90;;;;;;4885314;29;20041;-46
2024/01/14 11:30:53;;;;;;;31.98;17.85;;;4.40;99.90;;;;;;4895000;29;20041;-47
2024/01/14 11:33:49;;;;;;;29.25;17.55;;;4.50;99.90;;;;;;4880331;29;20073;-47
2024/01/14 11:36:53;;;;;;;30.70;16.67;;;4.40;99.90;;;;;;4855655;29;20100;-45
2024/01/14 11:39:18;;;;;;;30.02;17.65;;;4.40;99.90;;;;;;4875013;29;20041;-46
2024/01/14 11:41:45;;;;;;;34.30;18.67;;;4.50;99.90;;;;;;4884079;29;20151;-46
2024/01/14 11:44:13;;;;;;;32.58;18.33;;;4.40;99.90;;;;;;4864399;29;20535;-46
2024/01/14 11:46:41;;;;;;;31.13;19.17;;;4.40;99.90;;;;;;4878036;29;20041;-47
2024/01/14 11:49:11;;;;;;;35.13;19.98;;;4.40;99.90;;;;;;4876915;29;20041;-45
2024/01/14 11:51:43;;;;;;;33.20;19.50;;;4.40;99.90;;;;;;4873900;29;20128;-46
2024/01/14 11:54:09;;;;;;;37.92;20.65;;;4.40;99.90;;;;;;4881811;29;20044;-45
2024/01/14 11:56:36;;;;;;;32.67;19.65;;;4.40;99.90;;;;;;4879841;29;20080;-46
2024/01/14 11:59:06;;;;;;;34.88;20.33;;;4.40;99.90;;;;;;4866054;29;20055;-45
2024/01/14 12:01:32;;;;;;;35.15;20.88;;;4.30;99.90;;;;;;4880422;29;20130;-45
2024/01/14 12:04:08;;;;;;;32.45;20.00;;;4.30;99.90;;;;;;4880582;29;20045;-45
2024/01/14 12:06:49;;;;;;;35.22;19.58;;;4.30;99.90;;;;;;4880476;29;20373;-45
2024/01/14 12:09:16;;;;;;;34.35;20.98;;;4.20;99.90;;;;;;4880070;29;20045;-46
2024/01/14 12:11:43;;;;;;;34.10;20.08;;;4.10;99.90;;;;;;4865761;29;20457;-46
2024/01/14 12:14:10;;;;;;;36.40;20.50;;;4.10;99.90;;;;;;4880337;29;20444;-45
2024/01/14 12:16:38;;;;;;;37.50;20.07;;;4.10;99.90;;;;;;4881759;29;20045;-47
2024/01/14 12:19:18;;;;;;;33.90;20.90;;;4.10;99.90;;;;;;4881972;29;20753;-48
2024/01/14 12:21:44;;;;;;;37.05;21.23;;;4.10;99.90;;;;;;4878557;29;20128;-45
2024/01/14 12:24:11;;;;;;;36.90;21.40;;;4.10;99.90;;;;;;4877992;29;20552;-47
2024/01/14 12:26:37;;;;;;;35.43;20.23;;;4.00;99.90;;;;;;4878418;29;20053;-45
2024/01/14 12:29:02;;;;;;;37.25;21.10;;;4.10;99.90;;;;;;4878306;29;20302;-45
2024/01/14 12:31:31;;;;;;;37.72;20.60;;;4.10;99.90;;;;;;4877386;29;20404;-46
2024/01/14 12:34:01;;;;;;;36.40;21.70;;;4.00;99.90;;;;;;4876683;29;20048;-48
2024/01/14 12:36:26;;;;;;;38.95;21.40;;;4.10;99.90;;;;;;4879893;29;20105;-46
2024/01/14 12:38:53;;;;;;;43.67;22.58;;;4.20;99.90;;;;;;4877143;29;20041;-45
2024/01/14 12:41:18;;;;;;;40.00;22.08;;;4.10;99.90;;;;;;4876770;29;20396;-46
2024/01/14 12:43:44;;;;;;;40.65;22.83;;;4.20;99.90;;;;;;4880132;29;20041;-46
2024/01/14 12:46:10;;;;;;;38.70;22.27;;;4.10;99.90;;;;;;4877722;29;20049;-47